Time;durP1;ratioP1;P1;durP2;ratioP2;P2;SDS_P1;SDS_P2;PMS_P1;PMS_P2;Temp;Humidity;BMP_temperature;BMP_pressure;BME280_temperature;BME280_humidity;BME280_pressure;Samples;Min_cycle;Max_cycle;Signal;HPM_P1;HPM_P2
2023/01/06 00:01:11;;;;;;;4.27;1.57;;;;;;;9.92;100.00;99868.00;6104426;23;20535;-79
2023/01/06 00:03:38;;;;;;;6.10;1.77;;;;;;;9.83;100.00;99871.13;6245895;23;20216;-79
2023/01/06 00:06:05;;;;;;;4.33;1.70;;;;;;;9.77;100.00;99870.09;6245148;23;20284;-78
2023/01/06 00:08:35;;;;;;;5.40;1.43;;;;;;;9.89;100.00;99873.75;6245785;23;20212;-79
2023/01/06 00:11:11;;;;;;;6.20;1.70;;;;;;;9.81;100.00;99879.34;6246115;23;20214;-79
2023/01/06 00:13:38;;;;;;;5.40;1.70;;;;;;;9.77;100.00;99872.78;6245882;23;20595;-80
2023/01/06 00:16:11;;;;;;;5.40;1.40;;;;;;;9.65;100.00;99894.00;6244385;23;20205;-78
2023/01/06 00:18:38;;;;;;;4.67;1.77;;;;;;;9.68;100.00;99874.84;6264510;23;20231;-82
2023/01/06 00:21:06;;;;;;;5.03;1.50;;;;;;;9.69;100.00;99875.66;6215613;23;20188;-82
2023/01/06 00:23:35;;;;;;;4.03;1.53;;;;;;;9.77;100.00;99871.94;6091496;23;20219;-82
2023/01/06 00:26:05;;;;;;;6.67;1.70;;;;;;;9.78;100.00;99871.75;6239346;23;20208;-82
2023/01/06 00:28:32;;;;;;;5.77;1.43;;;;;;;9.81;100.00;99871.31;6189449;23;20237;-82
2023/01/06 00:31:09;;;;;;;4.23;1.50;;;;;;;9.76;100.00;99886.34;6237676;23;20240;-83
2023/01/06 00:33:37;;;;;;;3.53;1.57;;;;;;;9.72;100.00;99873.38;6226892;23;20263;-82
2023/01/06 00:36:07;;;;;;;4.70;1.33;;;;;;;9.71;100.00;99878.94;6265253;23;20263;-81
2023/01/06 00:38:37;;;;;;;3.30;1.40;;;;;;;9.85;100.00;99891.28;6113857;23;20231;-82
2023/01/06 00:43:56;;;;;;;2.73;1.23;;;;;;;9.79;100.00;99885.94;6236309;23;20260;-82
2023/01/06 00:46:27;;;;;;;5.27;1.60;;;;;;;9.73;100.00;99885.75;6263783;23;20505;-83
2023/01/06 00:48:57;;;;;;;4.53;1.50;;;;;;;9.83;100.00;99895.19;6236165;23;20208;-82
2023/01/06 00:51:36;;;;;;;4.87;1.53;;;;;;;9.90;100.00;99901.34;6218044;23;20262;-82
2023/01/06 00:54:04;;;;;;;4.27;1.30;;;;;;;9.76;100.00;99891.69;6217216;23;20687;-82
2023/01/06 00:56:31;;;;;;;3.77;1.40;;;;;;;9.82;100.00;99889.03;6082186;23;20633;-81
2023/01/06 00:58:57;;;;;;;5.83;1.60;;;;;;;9.84;100.00;99902.22;6254970;23;20282;-81
2023/01/06 01:01:24;;;;;;;6.23;1.90;;;;;;;9.77;100.00;99901.38;6228457;23;20205;-81
2023/01/06 01:03:51;;;;;;;6.47;1.97;;;;;;;9.79;100.00;99910.84;6101537;23;20661;-81
2023/01/06 01:06:18;;;;;;;4.67;1.50;;;;;;;9.83;100.00;99914.75;6254802;23;20204;-81
2023/01/06 01:08:44;;;;;;;4.87;1.40;;;;;;;9.94;100.00;99906.06;6222202;23;20260;-79
2023/01/06 01:12:08;;;;;;;4.93;1.60;;;;;;;9.78;100.00;99911.88;6219651;23;20259;-80
2023/01/06 01:14:02;;;;;;;4.53;1.67;;;;;;;9.82;100.00;99923.81;6241830;23;20209;-80
2023/01/06 01:16:29;;;;;;;4.20;1.50;;;;;;;9.83;100.00;99917.44;6250257;23;20201;-81
2023/01/06 01:18:56;;;;;;;4.77;1.77;;;;;;;9.89;100.00;99919.25;6127251;23;20204;-81
2023/01/06 01:21:22;;;;;;;5.53;1.50;;;;;;;9.93;100.00;99930.41;6257247;23;20259;-81
2023/01/06 01:23:50;;;;;;;2.93;1.27;;;;;;;9.87;100.00;99932.03;6227217;23;20209;-81
2023/01/06 01:26:17;;;;;;;5.70;2.00;;;;;;;9.97;100.00;99926.28;6225547;23;20228;-80
2023/01/06 01:28:44;;;;;;;4.83;1.70;;;;;;;9.72;100.00;99924.22;6225342;23;20191;-81
2023/01/06 01:31:12;;;;;;;4.83;1.67;;;;;;;9.62;100.00;99912.28;6174935;23;20552;-81
2023/01/06 01:33:42;;;;;;;3.70;1.40;;;;;;;9.68;100.00;99917.66;6251251;23;20216;-81
2023/01/06 01:36:11;;;;;;;4.60;1.53;;;;;;;9.52;100.00;99936.78;6226021;23;20208;-81
2023/01/06 01:38:38;;;;;;;5.13;1.90;;;;;;;9.69;100.00;99927.34;6247085;23;20291;-81
2023/01/06 01:41:05;;;;;;;5.83;1.50;;;;;;;9.61;100.00;99935.53;6222605;23;20216;-81
2023/01/06 01:43:48;;;;;;;5.07;1.60;;;;;;;9.54;100.00;99936.56;6221977;23;20284;-81
2023/01/06 01:46:37;;;;;;;7.10;1.80;;;;;;;9.40;100.00;99940.28;6220735;23;20283;-81
2023/01/06 01:49:09;;;;;;;7.47;1.73;;;;;;;9.46;100.00;99951.00;6222517;23;20219;-80
2023/01/06 01:51:39;;;;;;;5.67;1.60;;;;;;;9.46;100.00;99952.84;6075582;23;20231;-81
2023/01/06 01:54:10;;;;;;;4.83;1.40;;;;;;;9.42;100.00;99946.25;6225305;23;20232;-81
2023/01/06 01:56:41;;;;;;;5.80;1.70;;;;;;;9.38;100.00;99948.50;6202077;23;20236;-82
2023/01/06 01:59:14;;;;;;;3.70;1.37;;;;;;;9.38;100.00;99951.16;6075725;23;20243;-81
2023/01/06 02:01:41;;;;;;;4.23;1.73;;;;;;;9.28;100.00;99948.09;6202491;23;20255;-82
2023/01/06 02:04:08;;;;;;;6.37;1.93;;;;;;;9.18;100.00;99944.97;6250927;22;20212;-80
2023/01/06 02:06:38;;;;;;;5.20;1.60;;;;;;;9.15;100.00;99946.19;6197298;23;20266;-80
2023/01/06 02:09:21;;;;;;;3.77;1.43;;;;;;;9.07;100.00;99941.03;6172753;23;20216;-82
2023/01/06 02:11:50;;;;;;;6.03;1.60;;;;;;;9.07;100.00;99935.69;6096652;23;20218;-81
2023/01/06 02:14:19;;;;;;;5.40;1.63;;;;;;;9.07;100.00;99937.53;6194958;23;20208;-80
2023/01/06 02:16:55;;;;;;;4.43;1.80;;;;;;;9.12;100.00;99935.09;6219384;23;20219;-80
2023/01/06 02:19:22;;;;;;;3.43;1.40;;;;;;;9.16;100.00;99937.16;6197426;23;20250;-80
2023/01/06 02:22:20;;;;;;;5.63;1.50;;;;;;;9.16;100.00;99939.00;6099775;23;21051;-81
2023/01/06 02:25:05;;;;;;;6.40;1.70;;;;;;;9.14;100.00;99941.91;6199571;23;20204;-81
2023/01/06 02:27:51;;;;;;;5.50;1.50;;;;;;;9.15;100.00;99946.19;6098216;23;20216;-81
2023/01/06 02:30:57;;;;;;;5.47;1.53;;;;;;;9.12;100.00;99943.94;6201443;23;20552;-81
2023/01/06 02:33:58;;;;;;;3.87;1.33;;;;;;;9.31;100.00;99941.50;6202493;23;20211;-81
2023/01/06 02:36:28;;;;;;;5.27;1.50;;;;;;;9.32;100.00;99938.63;6178691;23;20215;-81
2023/01/06 02:39:29;;;;;;;7.17;1.70;;;;;;;9.17;100.00;99940.66;6204005;23;20680;-81
2023/01/06 02:42:11;;;;;;;4.87;1.50;;;;;;;9.27;100.00;99947.25;6205373;23;20230;-81
2023/01/06 02:44:44;;;;;;;3.50;1.50;;;;;;;9.24;100.00;99941.47;6201689;23;20680;-81
2023/01/06 02:47:18;;;;;;;3.93;1.50;;;;;;;9.15;100.00;99938.16;6074612;23;20222;-81
2023/01/06 02:50:13;;;;;;;4.73;1.50;;;;;;;9.15;100.00;99943.53;6203537;23;20214;-81
2023/01/06 02:52:48;;;;;;;3.47;1.23;;;;;;;9.11;100.00;99938.78;6191231;23;20652;-81
2023/01/06 02:55:22;;;;;;;5.63;1.73;;;;;;;9.05;100.00;99937.72;6075447;23;20258;-81
2023/01/06 02:57:55;;;;;;;3.17;1.50;;;;;;;9.19;100.00;99944.75;6179517;23;20212;-81
2023/01/06 03:00:49;;;;;;;7.27;1.80;;;;;;;9.05;100.00;99940.41;6178663;23;20231;-82
2023/01/06 03:03:20;;;;;;;4.30;1.63;;;;;;;9.01;100.00;99941.84;6193891;23;20672;-79
2023/01/06 03:05:50;;;;;;;5.90;1.93;;;;;;;8.99;100.00;99940.41;6192268;23;20604;-78
2023/01/06 03:08:24;;;;;;;6.03;1.40;;;;;;;8.89;100.00;99950.66;6167501;23;20251;-79
2023/01/06 03:10:52;;;;;;;3.30;1.67;;;;;;;8.83;100.00;99936.25;6194290;23;20219;-79
2023/01/06 03:13:29;;;;;;;5.60;1.80;;;;;;;8.84;100.00;99940.56;6194862;23;20210;-80
2023/01/06 03:15:57;;;;;;;5.50;1.83;;;;;;;8.78;100.00;99938.69;6170151;23;20279;-80
2023/01/06 03:18:25;;;;;;;5.33;1.30;;;;;;;8.58;100.00;99937.81;6196132;23;20215;-80
2023/01/06 03:20:53;;;;;;;6.37;1.80;;;;;;;8.53;100.00;99937.56;6172475;23;20216;-80
2023/01/06 03:23:21;;;;;;;5.53;1.60;;;;;;;8.58;100.00;99935.97;6196690;23;20734;-81
2023/01/06 03:25:48;;;;;;;6.33;1.63;;;;;;;8.37;100.00;99944.06;6196969;23;20216;-80
2023/01/06 03:28:14;;;;;;;4.37;1.70;;;;;;;8.31;100.00;99944.84;6171348;23;20261;-79
2023/01/06 03:30:50;;;;;;;5.73;1.67;;;;;;;8.35;100.00;99930.09;6095060;23;20220;-80
2023/01/06 03:33:24;;;;;;;4.17;1.70;;;;;;;8.44;100.00;99934.25;6194426;23;20231;-80
2023/01/06 03:36:01;;;;;;;4.80;1.40;;;;;;;8.27;100.00;99933.72;6169497;23;20227;-81
2023/01/06 03:38:38;;;;;;;5.30;1.50;;;;;;;8.30;100.00;99935.22;6169326;23;20253;-80
2023/01/06 03:44:42;;;;;;;5.53;1.50;;;;;;;8.29;100.00;99934.38;6193886;23;20687;-79
2023/01/06 03:47:23;;;;;;;3.37;1.60;;;;;;;8.22;100.00;99944.16;6169121;23;20262;-80
2023/01/06 03:50:24;;;;;;;5.47;1.50;;;;;;;8.26;100.00;99940.06;6195956;23;20232;-80
2023/01/06 03:53:20;;;;;;;4.47;1.53;;;;;;;8.27;100.00;99939.06;6066906;23;20527;-79
2023/01/06 03:55:54;;;;;;;3.50;1.13;;;;;;;8.24;100.00;99947.47;6153338;23;20242;-80
2023/01/06 03:58:22;;;;;;;6.60;1.53;;;;;;;8.08;100.00;99946.94;6043513;23;20236;-79
2023/01/06 04:00:48;;;;;;;5.30;1.57;;;;;;;8.05;100.00;99945.50;6192173;23;20231;-79
2023/01/06 04:03:15;;;;;;;4.83;1.30;;;;;;;7.98;100.00;99947.28;6168968;23;20551;-80
2023/01/06 04:05:43;;;;;;;5.60;1.33;;;;;;;7.94;100.00;99948.69;6205079;23;20252;-79
2023/01/06 04:08:10;;;;;;;2.87;1.27;;;;;;;7.98;100.00;99939.28;6215413;23;20212;-79
2023/01/06 04:10:39;;;;;;;6.07;1.40;;;;;;;7.97;100.00;99949.16;6189175;23;20296;-80
2023/01/06 04:13:06;;;;;;;3.20;1.30;;;;;;;7.85;100.00;99947.19;6188905;23;20677;-80
2023/01/06 04:15:34;;;;;;;4.97;1.43;;;;;;;7.94;100.00;99940.69;6213862;23;20221;-80
2023/01/06 04:18:04;;;;;;;4.97;1.47;;;;;;;8.08;100.00;99946.94;6187590;23;20224;-79
2023/01/06 04:20:34;;;;;;;6.20;1.50;;;;;;;7.91;100.00;99955.25;6213424;23;20232;-79
2023/01/06 04:23:10;;;;;;;6.20;1.70;;;;;;;7.85;100.00;99948.03;6189435;23;20189;-80
2023/01/06 04:25:38;;;;;;;5.30;1.40;;;;;;;7.92;100.00;99953.41;6214388;23;20646;-80
2023/01/06 04:28:12;;;;;;;5.33;1.53;;;;;;;7.94;100.00;99944.19;6187991;23;20537;-79
2023/01/06 04:30:39;;;;;;;4.67;1.30;;;;;;;7.84;100.00;99949.03;6188569;23;20206;-79
2023/01/06 04:33:06;;;;;;;6.10;1.60;;;;;;;7.91;100.00;99952.59;6187006;23;20215;-79
2023/01/06 04:35:35;;;;;;;3.80;1.40;;;;;;;7.82;100.00;99944.94;6188550;23;20236;-79
2023/01/06 04:38:02;;;;;;;4.30;1.43;;;;;;;7.90;100.00;99950.09;6163321;23;20244;-79
2023/01/06 04:40:28;;;;;;;6.70;1.70;;;;;;;8.02;100.00;99950.41;6216169;23;20209;-80
2023/01/06 04:43:04;;;;;;;3.43;1.30;;;;;;;7.97;100.00;99948.31;6218904;23;20213;-80
2023/01/06 04:45:31;;;;;;;5.33;1.47;;;;;;;8.12;100.00;99950.88;6218936;23;20205;-81
2023/01/06 04:47:58;;;;;;;4.50;1.83;;;;;;;8.16;100.00;99952.13;6218666;23;20728;-80
2023/01/06 04:50:25;;;;;;;5.20;1.60;;;;;;;8.07;100.00;99950.66;6217674;23;20212;-80
2023/01/06 04:52:51;;;;;;;5.23;1.57;;;;;;;8.14;100.00;99946.16;6218069;23;20284;-81
2023/01/06 04:55:18;;;;;;;5.73;1.63;;;;;;;8.14;100.00;99943.50;6218612;23;20209;-80
2023/01/06 04:57:45;;;;;;;5.67;1.60;;;;;;;8.19;100.00;99959.75;6194599;23;20276;-81
2023/01/06 05:00:12;;;;;;;7.27;1.83;;;;;;;8.23;100.00;99953.00;6219478;23;20209;-80
2023/01/06 05:02:39;;;;;;;6.23;1.50;;;;;;;8.23;100.00;99961.00;6193927;23;20217;-81
2023/01/06 05:05:06;;;;;;;4.47;1.63;;;;;;;8.18;100.00;99971.44;6196386;23;20296;-80
2023/01/06 05:07:32;;;;;;;4.43;1.47;;;;;;;8.20;100.00;99964.91;6096940;23;20215;-80
2023/01/06 05:09:59;;;;;;;4.80;1.60;;;;;;;8.20;100.00;99964.06;6093199;23;20212;-80
2023/01/06 05:12:26;;;;;;;3.80;1.50;;;;;;;8.20;100.00;99959.56;6091927;23;20667;-80
2023/01/06 05:14:53;;;;;;;3.80;1.80;;;;;;;8.25;100.00;99969.66;6092247;23;20211;-80
2023/01/06 05:17:19;;;;;;;5.97;1.60;;;;;;;8.20;100.00;99969.41;6092288;23;20716;-80
2023/01/06 05:19:46;;;;;;;6.20;1.53;;;;;;;8.18;100.00;99971.44;6092350;23;20219;-80
2023/01/06 05:22:13;;;;;;;4.57;1.30;;;;;;;8.19;100.00;99970.41;6091988;23;20219;-79
2023/01/06 05:24:39;;;;;;;3.73;1.50;;;;;;;8.16;100.00;99966.31;6092310;23;20208;-80
2023/01/06 05:27:06;;;;;;;7.10;2.00;;;;;;;8.13;100.00;99963.19;6085446;23;20208;-79
2023/01/06 05:29:33;;;;;;;5.33;1.87;;;;;;;8.10;100.00;99961.75;6092278;23;20787;-78
2023/01/06 05:31:59;;;;;;;5.93;1.40;;;;;;;8.09;100.00;99961.94;6092518;23;20208;-79
2023/01/06 05:34:26;;;;;;;4.80;1.40;;;;;;;8.00;100.00;99947.09;6092244;23;20199;-79
2023/01/06 05:36:53;;;;;;;4.13;1.60;;;;;;;8.00;100.00;99953.25;6120204;23;20215;-79
2023/01/06 05:39:20;;;;;;;5.07;1.43;;;;;;;7.98;100.00;99949.94;6092175;23;20235;-79
2023/01/06 05:41:46;;;;;;;7.77;1.80;;;;;;;7.82;100.00;99945.75;6166215;23;20698;-79
2023/01/06 05:44:13;;;;;;;4.27;1.87;;;;;;;7.81;100.00;99956.59;6102896;23;20210;-79
2023/01/06 05:46:39;;;;;;;5.33;1.70;;;;;;;7.73;100.00;99967.44;6092059;23;20694;-80
2023/01/06 05:49:07;;;;;;;6.23;1.43;;;;;;;7.58;100.00;99974.66;6092194;23;20216;-79
2023/01/06 05:51:34;;;;;;;4.93;1.40;;;;;;;7.57;100.00;99984.50;6066644;23;20548;-80
2023/01/06 05:54:00;;;;;;;2.73;1.40;;;;;;;7.52;100.00;99986.94;6091961;23;20204;-78
2023/01/06 05:56:27;;;;;;;4.80;1.77;;;;;;;7.49;100.00;99982.00;6092164;23;20287;-80
2023/01/06 05:58:54;;;;;;;4.80;1.50;;;;;;;7.49;100.00;99989.97;6092284;23;20283;-79
2023/01/06 06:01:23;;;;;;;5.93;1.93;;;;;;;7.43;100.00;99986.22;6091982;23;20218;-80
2023/01/06 06:03:51;;;;;;;4.77;2.13;;;;;;;7.39;100.00;99981.47;6092307;23;20210;-79
2023/01/06 06:06:22;;;;;;;6.60;1.77;;;;;;;7.32;100.00;99981.44;6196262;23;20258;-79
2023/01/06 06:08:48;;;;;;;3.10;1.60;;;;;;;7.33;100.00;99985.72;6220381;23;20287;-79
2023/01/06 06:11:16;;;;;;;4.90;1.90;;;;;;;7.34;100.00;99981.22;6245290;23;20208;-79
2023/01/06 06:13:47;;;;;;;3.73;1.73;;;;;;;7.32;100.00;99981.44;6246500;23;20288;-79
2023/01/06 06:16:16;;;;;;;5.77;1.60;;;;;;;7.29;100.00;99983.63;6245970;23;20225;-80
2023/01/06 06:18:46;;;;;;;5.33;2.03;;;;;;;7.27;100.00;99980.34;6246441;23;20231;-80
2023/01/06 06:21:15;;;;;;;4.23;2.33;;;;;;;7.29;100.00;99989.78;6220203;23;20230;-79
2023/01/06 06:23:42;;;;;;;4.93;1.93;;;;;;;7.33;100.00;99988.38;6219809;23;20210;-80
2023/01/06 06:26:10;;;;;;;4.03;2.10;;;;;;;7.31;100.00;99985.09;6246218;23;20259;-79
2023/01/06 06:28:38;;;;;;;4.57;1.90;;;;;;;7.34;100.00;99983.88;6246643;23;20200;-80
2023/01/06 06:31:13;;;;;;;5.87;2.10;;;;;;;7.32;100.00;99986.75;6220070;23;20287;-78
2023/01/06 06:33:40;;;;;;;4.60;1.80;;;;;;;7.40;100.00;99985.78;6246230;23;20282;-79
2023/01/06 06:36:10;;;;;;;3.93;1.40;;;;;;;7.41;100.00;99987.44;6246042;23;20587;-79
2023/01/06 06:38:38;;;;;;;6.13;2.13;;;;;;;7.42;100.00;99989.06;6246494;23;20213;-79
2023/01/06 06:41:05;;;;;;;8.57;2.20;;;;;;;7.49;100.00;99992.66;6246515;23;20279;-79
2023/01/06 06:43:32;;;;;;;5.70;2.40;;;;;;;7.49;100.00;99987.31;6246572;23;20251;-79
2023/01/06 06:45:58;;;;;;;4.67;2.00;;;;;;;7.49;100.00;99985.47;6246270;23;20207;-79
2023/01/06 06:48:27;;;;;;;4.47;2.00;;;;;;;7.51;100.00;99996.75;6246195;23;20211;-79
2023/01/06 06:50:59;;;;;;;6.17;2.30;;;;;;;7.56;100.00;100000.72;6219702;23;20208;-79
2023/01/06 06:53:26;;;;;;;4.60;1.90;;;;;;;7.57;100.00;100005.84;6247191;23;20266;-80
2023/01/06 06:55:52;;;;;;;5.50;1.97;;;;;;;7.56;100.00;99998.06;6207909;23;20210;-80
2023/01/06 06:58:19;;;;;;;5.43;1.97;;;;;;;7.61;100.00;100004.44;6244892;23;20216;-79
2023/01/06 07:00:46;;;;;;;6.23;2.47;;;;;;;7.70;100.00;100003.28;6247069;23;20203;-79
2023/01/06 07:03:12;;;;;;;5.77;1.90;;;;;;;7.73;100.00;99997.59;6246970;23;20207;-80
2023/01/06 07:05:42;;;;;;;4.87;2.00;;;;;;;7.74;100.00;99995.75;6246836;23;20196;-80
2023/01/06 07:08:09;;;;;;;5.03;1.63;;;;;;;7.76;100.00;100001.69;6220056;23;20213;-79
2023/01/06 07:10:35;;;;;;;5.53;2.10;;;;;;;7.84;100.00;100007.72;6247157;23;20212;-79
2023/01/06 07:13:02;;;;;;;4.40;1.80;;;;;;;7.89;100.00;100015.16;6246927;23;20212;-79
2023/01/06 07:15:30;;;;;;;6.97;2.03;;;;;;;8.04;100.00;100010.56;6247017;23;20200;-79
2023/01/06 07:18:01;;;;;;;4.67;1.90;;;;;;;8.08;100.00;100016.31;6246760;23;20275;-79
2023/01/06 07:20:29;;;;;;;6.63;1.87;;;;;;;8.17;100.00;100020.50;6226466;23;20198;-79
2023/01/06 07:22:56;;;;;;;6.10;1.80;;;;;;;8.27;100.00;100021.81;6226978;23;20215;-79
2023/01/06 07:25:23;;;;;;;5.60;1.90;;;;;;;8.36;100.00;100019.84;6247039;23;20205;-80
2023/01/06 07:27:57;;;;;;;7.37;4.10;;;;;;;8.51;100.00;100023.22;6247017;23;20204;-80
2023/01/06 07:30:24;;;;;;;6.27;4.10;;;;;;;8.59;100.00;100022.22;6246456;23;20262;-79
2023/01/06 07:32:52;;;;;;;8.07;3.57;;;;;;;8.72;100.00;100030.34;6220232;23;20205;-80
2023/01/06 07:35:19;;;;;;;5.47;2.90;;;;;;;8.88;100.00;100013.94;6246829;23;20727;-79
2023/01/06 07:37:45;;;;;;;6.10;2.60;;;;;;;8.97;100.00;100020.78;6246873;23;20201;-80
2023/01/06 07:40:12;;;;;;;6.17;2.30;;;;;;;9.00;100.00;100016.91;6219586;23;20244;-80
2023/01/06 07:42:39;;;;;;;9.27;2.13;;;;;;;9.08;100.00;100014.88;6246535;23;20280;-79
2023/01/06 07:45:06;;;;;;;5.27;1.63;;;;;;;9.16;100.00;100011.19;6246620;23;20209;-79
2023/01/06 07:47:33;;;;;;;5.70;1.70;;;;;;;9.25;100.00;100012.63;6246262;23;20228;-79
2023/01/06 07:50:00;;;;;;;5.07;1.80;;;;;;;9.35;100.00;100012.25;6221148;23;20675;-79
2023/01/06 07:52:26;;;;;;;7.53;2.00;;;;;;;9.32;100.00;100002.81;6222576;23;20232;-79
2023/01/06 07:54:58;;;;;;;6.87;2.00;;;;;;;9.42;100.00;100016.63;6246445;23;20215;-80
2023/01/06 07:57:25;;;;;;;6.37;1.97;;;;;;;9.46;100.00;100009.81;6244680;23;20208;-80
2023/01/06 07:59:52;;;;;;;4.20;1.97;;;;;;;9.51;100.00;100011.88;6245766;23;20279;-80
2023/01/06 08:02:19;;;;;;;9.60;3.23;;;;;;;9.55;100.00;100023.81;6246032;23;20231;-80
2023/01/06 08:04:46;;;;;;;6.43;2.37;;;;;;;9.58;100.00;100016.22;6245454;23;20215;-80
2023/01/06 08:07:14;;;;;;;6.40;2.00;;;;;;;9.69;100.00;100017.47;6195164;23;20688;-80
2023/01/06 08:09:40;;;;;;;4.23;1.87;;;;;;;9.77;100.00;100019.94;6218900;23;20213;-80
2023/01/06 08:12:07;;;;;;;3.93;1.73;;;;;;;9.73;100.00;100013.34;6245320;23;20208;-80
2023/01/06 08:14:34;;;;;;;4.37;1.60;;;;;;;9.73;100.00;100021.38;6245555;23;20288;-80
2023/01/06 08:17:00;;;;;;;3.20;1.67;;;;;;;9.72;100.00;100019.72;6219355;23;20204;-80
2023/01/06 08:19:27;;;;;;;3.50;1.50;;;;;;;9.76;100.00;100014.78;6244736;23;20219;-79
2023/01/06 08:21:53;;;;;;;3.57;1.53;;;;;;;9.77;100.00;100019.94;6249620;23;20209;-79
2023/01/06 08:24:20;;;;;;;4.03;1.70;;;;;;;9.69;100.00;100015.63;6246920;23;20638;-79
2023/01/06 08:26:46;;;;;;;3.30;1.60;;;;;;;9.81;100.00;100009.63;6245380;23;20287;-82
2023/01/06 08:29:13;;;;;;;4.67;2.03;;;;;;;9.84;100.00;100014.59;6245379;23;20268;-81
2023/01/06 08:31:40;;;;;;;1.93;1.40;;;;;;;9.83;100.00;100012.94;6245979;23;20215;-81
2023/01/06 08:34:06;;;;;;;5.00;1.80;;;;;;;9.88;100.00;100015.84;6245511;23;20208;-81
2023/01/06 08:36:33;;;;;;;4.13;1.83;;;;;;;9.91;100.00;100015.41;6245301;23;20279;-82
2023/01/06 08:39:00;;;;;;;3.73;1.70;;;;;;;10.02;100.00;100018.31;6245045;23;20208;-81
2023/01/06 08:41:26;;;;;;;3.83;1.80;;;;;;;10.07;100.00;100021.19;6219157;23;20622;-82
2023/01/06 08:43:53;;;;;;;4.70;1.83;;;;;;;10.08;100.00;100011.28;6245812;23;20292;-82
2023/01/06 08:46:20;;;;;;;4.33;1.90;;;;;;;10.14;100.00;100016.63;6245022;23;20551;-83
2023/01/06 08:48:47;;;;;;;4.10;2.17;;;;;;;10.25;100.00;100017.91;6245415;23;20704;-82
2023/01/06 08:51:17;;;;;;;4.03;1.80;;;;;;;10.34;100.00;100016.66;6245316;23;20284;-81
2023/01/06 08:53:44;;;;;;;4.20;1.70;;;;;;;10.49;100.00;100011.06;6218510;23;20582;-82
2023/01/06 08:56:13;;;;;;;6.73;4.10;;;;;;;10.58;100.00;100023.22;6244307;23;20204;-83
2023/01/06 08:58:40;;;;;;;14.03;12.33;;;;;;;10.64;100.00;100021.53;6244738;23;20219;-82
2023/01/06 09:01:14;;;;;;;13.37;11.73;;;;;;;10.71;100.00;100025.00;6244900;23;20219;-81
2023/01/06 09:03:40;;;;;;;9.23;8.17;;;;;;;10.82;100.00;100016.34;6245062;23;20214;-82
2023/01/06 09:06:07;;;;;;;8.40;6.40;;;;;;;10.96;100.00;100023.28;6243785;23;20532;-82
2023/01/06 09:08:34;;;;;;;4.23;3.80;;;;;;;11.07;100.00;100019.09;6218399;23;20216;-83
2023/01/06 09:11:07;;;;;;;5.30;3.30;;;;;;;11.15;100.00;100024.25;6244580;23;20205;-82
2023/01/06 09:13:35;;;;;;;4.23;2.47;;;;;;;11.35;100.00;100011.53;6241896;23;20261;-81
2023/01/06 09:16:06;;;;;;;6.30;2.97;;;;;;;11.41;100.00;100024.09;6241780;23;20211;-82
2023/01/06 09:18:33;;;;;;;4.73;2.60;;;;;;;11.53;100.00;100018.84;6217595;23;20208;-84
2023/01/06 09:21:00;;;;;;;3.67;2.17;;;;;;;11.63;100.00;100020.03;6243067;23;20251;-82
2023/01/06 09:23:27;;;;;;;3.83;2.10;;;;;;;11.64;100.00;100016.31;6243533;23;20278;-82
2023/01/06 09:25:55;;;;;;;7.13;2.63;;;;;;;11.63;100.00;100016.50;6244724;23;20283;-82
2023/01/06 09:28:21;;;;;;;7.10;4.77;;;;;;;11.67;100.00;100021.22;6202618;23;20642;-82
2023/01/06 09:30:48;;;;;;;6.10;3.70;;;;;;;11.73;100.00;100009.66;6244598;23;20220;-83
2023/01/06 09:33:16;;;;;;;5.97;2.83;;;;;;;11.81;100.00;100021.97;6218002;23;20211;-82
2023/01/06 09:35:46;;;;;;;3.80;2.40;;;;;;;11.92;100.00;100015.91;6244453;23;20232;-83
2023/01/06 09:38:13;;;;;;;4.03;2.67;;;;;;;12.01;100.00;100021.84;6217526;23;20215;-83
2023/01/06 09:40:55;;;;;;;5.03;2.47;;;;;;;12.03;100.00;100017.91;6217598;23;20205;-82
2023/01/06 09:43:28;;;;;;;3.83;2.43;;;;;;;12.15;100.00;100013.44;6244431;23;20215;-82
2023/01/06 09:45:57;;;;;;;4.23;2.67;;;;;;;12.20;100.00;100013.63;6244553;23;20696;-82
2023/01/06 09:48:28;;;;;;;2.93;2.20;;;;;;;12.09;100.00;99995.53;6216680;23;20542;-82
2023/01/06 09:50:59;;;;;;;4.10;2.27;;;;;;;12.15;100.00;99999.19;6217683;23;20242;-83
2023/01/06 09:53:33;;;;;;;3.77;2.33;;;;;;;12.27;100.00;99997.44;6217671;23;20245;-81
2023/01/06 09:56:02;;;;;;;5.40;2.20;;;;;;;12.39;100.00;99995.66;6244392;23;20280;-83
2023/01/06 09:58:39;;;;;;;3.10;2.43;;;;;;;12.42;100.00;99989.00;6244010;23;20280;-83
2023/01/06 10:01:09;;;;;;;4.47;2.30;;;;;;;12.52;100.00;99986.63;6244536;23;20240;-84
2023/01/06 10:03:36;;;;;;;4.13;1.90;;;;;;;12.54;100.00;99989.94;6244017;23;20209;-82
2023/01/06 10:06:21;;;;;;;5.13;2.40;;;;;;;12.66;100.00;99990.81;6216571;23;20263;-82
2023/01/06 10:09:00;;;;;;;5.47;2.73;;;;;;;12.76;100.00;99983.03;6244195;23;20729;-89
2023/01/06 10:11:39;;;;;;;5.07;3.37;;;;;;;12.87;100.00;99974.25;6243847;23;20669;-82
2023/01/06 10:14:17;;;;;;;6.70;3.80;;;;;;;13.03;100.00;99975.47;6241531;23;20605;-82
2023/01/06 10:16:43;;;;;;;6.13;3.87;;;;;;;13.10;100.00;99968.97;6217113;23;20300;-83
2023/01/06 10:19:31;;;;;;;6.30;3.97;;;;;;;13.26;100.00;99983.66;6243561;23;20215;-82
2023/01/06 10:22:04;;;;;;;4.97;3.80;;;;;;;13.37;100.00;99982.06;6243883;23;20677;-83
2023/01/06 10:24:36;;;;;;;3.83;2.90;;;;;;;13.44;100.00;99977.41;6243345;23;20665;-83
2023/01/06 10:27:19;;;;;;;6.43;2.90;;;;;;;13.54;100.00;99978.50;6243886;23;20280;-83
2023/01/06 10:29:47;;;;;;;3.60;1.97;;;;;;;13.55;100.00;99963.16;6217593;23;20224;-82
2023/01/06 10:32:15;;;;;;;4.03;1.60;;;;;;;13.47;100.00;99968.88;6242859;23;20235;-82
2023/01/06 10:34:48;;;;;;;4.27;1.93;;;;;;;13.54;100.00;99962.34;6243292;23;20211;-82
2023/01/06 10:37:27;;;;;;;2.83;1.90;;;;;;;13.57;100.00;99961.06;6213268;23;20588;-82
2023/01/06 10:40:15;;;;;;;4.40;1.80;;;;;;;13.75;100.00;99952.09;6235863;23;20219;-83
2023/01/06 10:42:56;;;;;;;3.10;2.00;;;;;;;13.76;100.00;99949.16;6243108;23;20239;-83
2023/01/06 10:45:45;;;;;;;1.60;1.30;;;;;;;13.92;100.00;99950.34;6218941;23;20214;-83
2023/01/06 10:48:26;;;;;;;2.90;1.50;;;;;;;13.99;100.00;99933.03;6216195;23;20242;-82
2023/01/06 10:50:53;;;;;;;1.97;1.17;;;;;;;14.15;100.00;99942.25;6242862;23;20219;-83
2023/01/06 10:53:22;;;;;;;3.00;1.37;;;;;;;14.27;100.00;99936.88;6218362;23;20239;-83
2023/01/06 10:55:53;;;;;;;2.47;1.40;;;;;;;14.26;100.00;99935.22;6244834;23;20237;-82
2023/01/06 10:58:42;;;;;;;2.70;1.33;;;;;;;14.37;100.00;99927.13;6218198;23;20704;-82
2023/01/06 11:01:14;;;;;;;2.93;1.50;;;;;;;14.37;100.00;99927.13;6244957;23;20245;-83
2023/01/06 11:03:43;;;;;;;3.87;1.80;;;;;;;14.35;100.00;99910.38;6245532;23;20210;-85
2023/01/06 11:06:29;;;;;;;2.33;1.30;;;;;;;14.29;100.00;99913.19;6218742;23;20209;-85
2023/01/06 11:08:57;;;;;;;2.97;1.70;;;;;;;14.31;100.00;99911.06;6219598;23;20215;-86
2023/01/06 11:11:24;;;;;;;2.73;2.10;;;;;;;14.35;100.00;99907.66;6246390;23;20206;-86
2023/01/06 11:13:58;;;;;;;3.47;2.10;;;;;;;14.45;100.00;99899.84;6207267;23;20271;-84
2023/01/06 11:16:28;;;;;;;3.07;1.70;;;;;;;14.51;100.00;99893.47;6244586;23;20207;-83
2023/01/06 11:18:57;;;;;;;2.77;1.40;;;;;;;14.45;100.00;99882.84;6217764;23;20667;-83
2023/01/06 11:21:45;;;;;;;2.63;1.60;;;;;;;14.30;100.00;99872.53;6219501;23;20211;-85
2023/01/06 11:24:18;;;;;;;1.63;1.17;;;;;;;14.30;100.00;99872.53;6245207;23;20211;-86
2023/01/06 11:26:52;;;;;;;2.53;1.20;;;;;;;14.19;100.00;99878.75;6243513;23;20269;-85
2023/01/06 11:29:28;;;;;;;2.67;1.17;;;;;;;14.15;100.00;99876.75;6217637;23;20730;-84
2023/01/06 11:31:56;;;;;;;3.40;1.27;;;;;;;14.11;100.00;99869.16;6218481;23;20211;-82
2023/01/06 11:34:25;;;;;;;3.37;1.57;;;;;;;14.10;100.00;99874.78;6217662;23;20237;-82
2023/01/06 11:36:52;;;;;;;2.07;1.37;;;;;;;14.02;100.00;99867.06;6218082;23;20213;-82
2023/01/06 11:39:22;;;;;;;2.43;1.23;;;;;;;13.95;100.00;99863.69;6244787;23;20286;-81
2023/01/06 11:41:50;;;;;;;2.13;1.00;;;;;;;13.91;100.00;99863.31;6244869;23;20222;-83
2023/01/06 11:44:24;;;;;;;1.60;1.00;;;;;;;13.95;100.00;99861.00;6217662;23;20215;-82
2023/01/06 11:46:55;;;;;;;2.30;1.10;;;;;;;13.96;100.00;99854.53;6244761;23;20238;-82
2023/01/06 11:49:35;;;;;;;2.03;1.13;;;;;;;13.99;100.00;99854.06;6218103;23;20214;-82
2023/01/06 11:52:06;;;;;;;3.17;1.37;;;;;;;13.98;100.00;99847.88;6192832;23;20219;-82